createdAt,value
2023-04-15T00:00:49.417Z,0
2023-04-15T00:02:04.742Z,0
2023-04-15T00:03:21.014Z,0
2023-04-15T00:04:37.331Z,0
2023-04-15T00:05:53.624Z,0
2023-04-15T00:07:09.905Z,0
2023-04-15T00:09:42.503Z,0
2023-04-15T00:10:58.791Z,0
2023-04-15T00:12:14.097Z,0
2023-04-15T00:13:29.404Z,0
2023-04-15T00:14:44.732Z,0
2023-04-15T00:16:00.038Z,0
2023-04-15T00:17:15.378Z,0
2023-04-15T00:18:30.668Z,0
2023-04-15T00:19:46.957Z,0
2023-04-15T00:21:02.298Z,0
2023-04-15T00:22:17.585Z,0
2023-04-15T00:23:33.875Z,0
2023-04-15T00:24:50.194Z,0
2023-04-15T00:26:06.485Z,0
2023-04-15T00:27:22.758Z,0
2023-04-15T00:28:39.064Z,0
2023-04-15T00:29:55.361Z,0
2023-04-15T00:31:11.669Z,0
2023-04-15T00:32:27.954Z,0
2023-04-15T00:33:44.230Z,0
2023-04-15T00:35:00.529Z,0
2023-04-15T00:36:16.812Z,0
2023-04-15T00:37:33.106Z,0
2023-04-15T00:38:48.429Z,0
2023-04-15T00:40:04.737Z,0
2023-04-15T00:41:21.030Z,0
2023-04-15T00:42:37.326Z,0
2023-04-15T00:43:53.625Z,0
2023-04-15T00:45:09.896Z,0
2023-04-15T00:46:26.218Z,0
2023-04-15T00:47:42.476Z,0
2023-04-15T00:48:57.817Z,0
2023-04-15T00:50:13.116Z,0
2023-04-15T00:51:28.431Z,0
2023-04-15T00:52:43.742Z,0
2023-04-15T00:54:00.034Z,0
2023-04-15T00:55:16.344Z,0
2023-04-15T00:56:32.632Z,0
2023-04-15T00:57:48.933Z,0
2023-04-15T00:59:05.225Z,0
2023-04-15T01:00:21.520Z,0
2023-04-15T01:01:37.807Z,0
2023-04-15T01:02:54.095Z,0
2023-04-15T01:04:10.413Z,0
2023-04-15T01:05:26.696Z,0
2023-04-15T01:06:42.973Z,0
2023-04-15T01:07:59.284Z,0
2023-04-15T01:09:14.578Z,0
2023-04-15T01:10:30.869Z,0
2023-04-15T01:11:47.179Z,0
2023-04-15T01:13:03.459Z,0
2023-04-15T01:14:19.759Z,0
2023-04-15T01:15:36.056Z,0
2023-04-15T01:16:52.376Z,0
2023-04-15T01:18:07.681Z,0
2023-04-15T01:19:22.987Z,0
2023-04-15T01:20:39.256Z,0
2023-04-15T01:21:55.567Z,0
2023-04-15T01:23:11.864Z,0
2023-04-15T01:24:28.144Z,0
2023-04-15T01:25:44.453Z,0
2023-04-15T01:27:00.758Z,0
2023-04-15T01:28:17.045Z,0
2023-04-15T01:29:33.316Z,0
2023-04-15T01:30:49.652Z,0
2023-04-15T01:32:05.904Z,0
2023-04-15T01:33:22.199Z,0
2023-04-15T01:34:38.517Z,0
2023-04-15T01:35:53.830Z,0
2023-04-15T01:37:10.124Z,0
2023-04-15T01:38:26.416Z,0
2023-04-15T01:39:42.695Z,0
2023-04-15T01:40:59.021Z,0
2023-04-15T01:42:15.308Z,0
2023-04-15T01:43:31.594Z,0
2023-04-15T01:44:46.922Z,0
2023-04-15T01:46:02.197Z,0
2023-04-15T01:47:17.527Z,0
2023-04-15T01:48:32.846Z,0
2023-04-15T01:49:49.139Z,0
2023-04-15T01:51:05.436Z,0
2023-04-15T01:52:20.731Z,0
2023-04-15T01:53:36.069Z,0
2023-04-15T01:54:52.339Z,0
2023-04-15T01:56:08.629Z,0
2023-04-15T01:57:24.943Z,0
2023-04-15T01:58:41.217Z,0
2023-04-15T01:59:57.528Z,0
2023-04-15T02:01:13.808Z,0
2023-04-15T02:02:30.095Z,0
2023-04-15T02:03:46.401Z,0
2023-04-15T02:05:02.695Z,0
2023-04-15T02:06:18.983Z,0
2023-04-15T02:07:35.306Z,0
2023-04-15T02:08:51.604Z,0
2023-04-15T02:10:06.876Z,0
2023-04-15T02:11:23.171Z,0
2023-04-15T02:12:39.466Z,0
2023-04-15T02:13:55.773Z,0
2023-04-15T02:15:12.052Z,0
2023-04-15T02:16:28.356Z,0
2023-04-15T02:17:44.646Z,0
2023-04-15T02:18:59.977Z,0
2023-04-15T02:20:15.276Z,0
2023-04-15T02:21:30.600Z,0
2023-04-15T02:22:45.000Z,0
2023-04-15T02:24:02.199Z,0
2023-04-15T02:25:18.485Z,0
2023-04-15T02:26:34.791Z,0
2023-04-15T02:27:51.069Z,0
2023-04-15T02:29:07.379Z,0
2023-04-15T02:30:23.666Z,0
2023-04-15T02:31:39.972Z,0
2023-04-15T02:32:56.262Z,0
2023-04-15T02:34:12.541Z,0
2023-04-15T02:35:28.839Z,0
2023-04-15T02:36:45.141Z,0
2023-04-15T02:38:01.435Z,0
2023-04-15T02:39:16.744Z,0
2023-04-15T02:40:33.045Z,0
2023-04-15T02:41:49.331Z,0
2023-04-15T02:43:05.616Z,0
2023-04-15T02:44:21.921Z,0
2023-04-15T02:45:38.214Z,0
2023-04-15T02:46:54.505Z,0
2023-04-15T02:48:09.834Z,0
2023-04-15T02:49:25.139Z,0
2023-04-15T02:50:40.443Z,0
2023-04-15T02:51:55.760Z,0
2023-04-15T02:53:12.052Z,0
2023-04-15T02:54:28.344Z,0
2023-04-15T02:55:44.648Z,0
2023-04-15T02:57:00.927Z,0
2023-04-15T02:58:17.227Z,0
2023-04-15T02:59:33.522Z,0
2023-04-15T03:00:49.810Z,0
2023-04-15T03:02:06.107Z,0
2023-04-15T03:03:22.409Z,0
2023-04-15T03:04:38.690Z,0
2023-04-15T03:05:54.998Z,0
2023-04-15T03:07:11.282Z,0
2023-04-15T03:08:26.591Z,0
2023-04-15T03:09:42.889Z,0
2023-04-15T03:10:59.194Z,0
2023-04-15T03:12:15.475Z,0
2023-04-15T03:13:31.771Z,0
2023-04-15T03:14:48.070Z,0
2023-04-15T03:16:04.374Z,0
2023-04-15T03:17:19.677Z,0
2023-04-15T03:18:34.988Z,0
2023-04-15T03:19:51.289Z,0
2023-04-15T03:21:07.585Z,0
2023-04-15T03:22:23.877Z,0
2023-04-15T03:23:40.165Z,0
2023-04-15T03:24:56.459Z,0
2023-04-15T03:26:12.752Z,0
2023-04-15T03:27:29.041Z,0
2023-04-15T03:28:45.000Z,0
2023-04-15T03:30:01.631Z,0
2023-04-15T03:31:17.940Z,0
2023-04-15T03:32:34.229Z,0
2023-04-15T03:33:50.530Z,0
2023-04-15T03:35:05.824Z,0
2023-04-15T03:36:22.127Z,0
2023-04-15T03:37:38.409Z,0
2023-04-15T03:38:54.708Z,0
2023-04-15T03:40:11.020Z,0
2023-04-15T03:41:27.304Z,0
2023-04-15T03:42:43.596Z,0
2023-04-15T03:43:58.916Z,0
2023-04-15T03:45:14.225Z,0
2023-04-15T03:46:29.529Z,0
2023-04-15T03:47:44.849Z,0
2023-04-15T03:49:00.168Z,0
2023-04-15T03:50:15.483Z,0
2023-04-15T03:51:31.758Z,0
2023-04-15T03:52:48.054Z,0
2023-04-15T03:54:04.351Z,0
2023-04-15T03:55:20.659Z,0
2023-04-15T03:56:36.937Z,0
2023-04-15T03:57:53.178Z,0
2023-04-15T03:59:09.445Z,0
2023-04-15T04:00:25.680Z,0
2023-04-15T04:01:41.919Z,0
2023-04-15T04:02:58.211Z,0
2023-04-15T04:04:14.455Z,0
2023-04-15T04:05:30.710Z,0
2023-04-15T04:06:45.953Z,0
2023-04-15T04:08:02.205Z,0
2023-04-15T04:09:18.443Z,0
2023-04-15T04:10:34.688Z,0
2023-04-15T04:11:50.921Z,0
2023-04-15T04:13:07.154Z,0
2023-04-15T04:14:23.396Z,0
2023-04-15T04:15:38.665Z,0
2023-04-15T04:16:53.922Z,0
2023-04-15T04:18:09.184Z,0
2023-04-15T04:19:24.447Z,0
2023-04-15T04:20:40.669Z,0
2023-04-15T04:21:56.912Z,0
2023-04-15T04:23:13.164Z,0
2023-04-15T04:24:29.396Z,0
2023-04-15T04:25:45.629Z,0
2023-04-15T04:27:01.869Z,0
2023-04-15T04:28:18.116Z,0
2023-04-15T04:29:34.374Z,0
2023-04-15T04:30:50.600Z,0
2023-04-15T04:32:06.858Z,0
2023-04-15T04:33:23.074Z,0
2023-04-15T04:34:39.318Z,0
2023-04-15T04:35:54.592Z,0
2023-04-15T04:37:10.811Z,0
2023-04-15T04:38:27.066Z,0
2023-04-15T04:39:43.294Z,0
2023-04-15T04:40:59.547Z,0
2023-04-15T04:42:15.778Z,0
2023-04-15T04:43:32.026Z,0
2023-04-15T04:44:47.283Z,0
2023-04-15T04:46:02.542Z,0
2023-04-15T04:47:18.771Z,0
2023-04-15T04:48:35.019Z,0
2023-04-15T04:49:51.276Z,0
2023-04-15T04:51:07.509Z,0
2023-04-15T04:52:23.738Z,0
2023-04-15T04:53:39.982Z,0
2023-04-15T04:54:56.214Z,0
2023-04-15T04:56:12.465Z,0
2023-04-15T04:57:28.707Z,0
2023-04-15T04:58:44.933Z,0
2023-04-15T05:00:01.185Z,0
2023-04-15T05:01:17.425Z,0
2023-04-15T05:02:32.679Z,0
2023-04-15T05:03:48.931Z,0
2023-04-15T05:05:05.151Z,0
2023-04-15T05:06:21.391Z,0
2023-04-15T05:07:36.674Z,0
2023-04-15T05:08:52.893Z,0
2023-04-15T05:10:09.143Z,0
2023-04-15T05:11:24.405Z,0
2023-04-15T05:12:39.659Z,0
2023-04-15T05:13:54.910Z,0
2023-04-15T05:15:10.169Z,0
2023-04-15T05:16:26.421Z,5
2023-04-15T05:17:42.648Z,5
2023-04-15T05:18:58.897Z,5
2023-04-15T05:20:15.127Z,5
2023-04-15T05:21:31.380Z,5
2023-04-15T05:22:47.626Z,5
2023-04-15T05:24:03.848Z,5
2023-04-15T05:25:20.107Z,5
2023-04-15T05:26:36.351Z,5
2023-04-15T05:27:52.577Z,5
2023-04-15T05:29:08.821Z,5
2023-04-15T05:30:25.066Z,5
2023-04-15T05:31:40.320Z,5
2023-04-15T05:32:56.000Z,5
2023-04-15T05:34:12.797Z,5
2023-04-15T05:35:29.035Z,5
2023-04-15T05:36:45.290Z,5
2023-04-15T05:38:01.513Z,5
2023-04-15T05:39:17.747Z,5
2023-04-15T05:40:33.014Z,5
2023-04-15T05:41:48.277Z,5
2023-04-15T05:43:03.534Z,5
2023-04-15T05:44:18.795Z,5
2023-04-15T05:45:34.054Z,5
2023-04-15T05:46:49.302Z,5
2023-04-15T05:48:05.556Z,11
2023-04-15T05:49:21.791Z,11
2023-04-15T05:50:38.031Z,11
2023-04-15T05:51:54.266Z,11
2023-04-15T05:53:10.528Z,11
2023-04-15T05:54:26.759Z,11
2023-04-15T05:55:42.992Z,11
2023-04-15T05:56:59.241Z,11
2023-04-15T05:58:15.474Z,11
2023-04-15T05:59:31.702Z,11
2023-04-15T06:00:47.957Z,16
2023-04-15T06:02:04.187Z,16
2023-04-15T06:03:19.451Z,16
2023-04-15T06:04:35.706Z,16
2023-04-15T06:05:51.935Z,16
2023-04-15T06:07:08.170Z,16
2023-04-15T06:08:24.417Z,16
2023-04-15T06:09:40.648Z,16
2023-04-15T06:10:56.896Z,16
2023-04-15T06:12:12.161Z,16
2023-04-15T06:13:27.416Z,16
2023-04-15T06:14:42.675Z,11
2023-04-15T06:15:57.934Z,11
2023-04-15T06:17:14.172Z,11
2023-04-15T06:18:30.414Z,11
2023-04-15T06:19:46.657Z,11
2023-04-15T06:21:02.891Z,11
2023-04-15T06:22:19.123Z,11
2023-04-15T06:23:35.372Z,11
2023-04-15T06:24:51.603Z,11
2023-04-15T06:26:07.857Z,11
2023-04-15T06:27:24.082Z,11
2023-04-15T06:28:40.321Z,11
2023-04-15T06:29:56.581Z,11
2023-04-15T06:31:12.830Z,11
2023-04-15T06:32:28.073Z,11
2023-04-15T06:33:44.312Z,11
2023-04-15T06:35:00.556Z,11
2023-04-15T06:36:16.783Z,11
2023-04-15T06:37:33.024Z,16
2023-04-15T06:38:49.262Z,16
2023-04-15T06:40:05.507Z,16
2023-04-15T06:41:20.766Z,16
2023-04-15T06:42:36.031Z,16
2023-04-15T06:43:52.271Z,16
2023-04-15T06:45:08.500Z,16
2023-04-15T06:46:24.752Z,16
2023-04-15T06:47:40.989Z,16
2023-04-15T06:48:57.228Z,16
2023-04-15T06:50:13.477Z,16
2023-04-15T06:51:29.702Z,16
2023-04-15T06:52:45.955Z,11
2023-04-15T06:54:02.180Z,11
2023-04-15T06:55:18.433Z,11
2023-04-15T06:56:34.672Z,11
2023-04-15T06:57:50.909Z,11
2023-04-15T06:59:06.162Z,11
2023-04-15T07:00:22.410Z,5
2023-04-15T07:01:38.650Z,5
2023-04-15T07:02:54.891Z,5
2023-04-15T07:04:11.138Z,11
2023-04-15T07:05:27.363Z,11
2023-04-15T07:06:43.599Z,11
2023-04-15T07:07:58.871Z,11
2023-04-15T07:09:14.134Z,11
2023-04-15T07:10:29.395Z,11
2023-04-15T07:11:44.647Z,16
2023-04-15T07:13:00.872Z,16
2023-04-15T07:14:17.112Z,22
2023-04-15T07:15:33.376Z,22
2023-04-15T07:16:49.618Z,22
2023-04-15T07:18:05.847Z,22
2023-04-15T07:19:22.090Z,16
2023-04-15T07:20:38.317Z,16
2023-04-15T07:21:54.568Z,16
2023-04-15T07:23:10.796Z,22
2023-04-15T07:24:27.000Z,28
2023-04-15T07:25:43.274Z,28
2023-04-15T07:26:59.531Z,22
2023-04-15T07:28:14.775Z,16
2023-04-15T07:29:31.025Z,22
2023-04-15T07:30:47.278Z,22
2023-04-15T07:32:03.513Z,16
2023-04-15T07:33:19.752Z,16
2023-04-15T07:34:35.988Z,16
2023-04-15T07:35:52.236Z,16
2023-04-15T07:37:07.488Z,16
2023-04-15T07:38:22.744Z,16
2023-04-15T07:39:38.007Z,16
2023-04-15T07:40:53.260Z,16
2023-04-15T07:42:09.507Z,16
2023-04-15T07:43:25.753Z,16
2023-04-15T07:44:41.976Z,16
2023-04-15T07:45:58.218Z,16
2023-04-15T07:47:14.460Z,16
2023-04-15T07:48:30.704Z,11
2023-04-15T07:49:46.934Z,11
2023-04-15T07:51:03.186Z,11
2023-04-15T07:52:19.423Z,11
2023-04-15T07:53:35.665Z,11
2023-04-15T07:54:51.914Z,11
2023-04-15T07:56:08.145Z,11
2023-04-15T07:57:23.405Z,11
2023-04-15T07:58:39.636Z,11
2023-04-15T07:59:55.878Z,16
2023-04-15T08:01:12.119Z,16
2023-04-15T08:02:28.369Z,16
2023-04-15T08:03:44.601Z,16
2023-04-15T08:05:00.835Z,16
2023-04-15T08:06:16.104Z,16
2023-04-15T08:07:31.361Z,16
2023-04-15T08:08:47.597Z,16
2023-04-15T08:10:03.844Z,16
2023-04-15T08:11:20.086Z,16
2023-04-15T08:12:35.336Z,16
2023-04-15T08:13:50.617Z,16
2023-04-15T08:15:06.846Z,16
2023-04-15T08:16:23.089Z,16
2023-04-15T08:17:39.312Z,22
2023-04-15T08:18:55.564Z,22
2023-04-15T08:20:11.808Z,22
2023-04-15T08:21:28.039Z,22
2023-04-15T08:22:44.283Z,22
2023-04-15T08:24:00.528Z,22
2023-04-15T08:25:16.759Z,22
2023-04-15T08:26:32.993Z,22
2023-04-15T08:27:49.241Z,16
2023-04-15T08:29:05.474Z,16
2023-04-15T08:30:20.736Z,16
2023-04-15T08:31:36.985Z,22
2023-04-15T08:32:53.211Z,22
2023-04-15T08:34:09.468Z,22
2023-04-15T08:35:25.695Z,16
2023-04-15T08:36:41.934Z,16
2023-04-15T08:37:58.174Z,16
2023-04-15T08:39:13.449Z,22
2023-04-15T08:40:28.688Z,28
2023-04-15T08:41:43.947Z,28
2023-04-15T08:42:59.219Z,33
2023-04-15T08:44:15.452Z,33
2023-04-15T08:45:31.689Z,28
2023-04-15T08:46:47.940Z,28
2023-04-15T08:48:04.164Z,33
2023-04-15T08:49:20.428Z,33
2023-04-15T08:50:36.649Z,33
2023-04-15T08:51:52.903Z,33
2023-04-15T08:53:09.139Z,33
2023-04-15T08:54:25.375Z,28
2023-04-15T08:55:41.619Z,28
2023-04-15T08:56:57.849Z,28
2023-04-15T08:58:14.088Z,28
2023-04-15T08:59:29.363Z,28
2023-04-15T09:00:45.597Z,28
2023-04-15T09:02:01.821Z,28
2023-04-15T09:03:18.077Z,28
2023-04-15T09:04:34.310Z,28
2023-04-15T09:05:50.552Z,39
2023-04-15T09:07:06.798Z,45
2023-04-15T09:08:22.055Z,39
2023-04-15T09:09:38.297Z,33
2023-04-15T09:10:53.545Z,33
2023-04-15T09:12:08.812Z,33
2023-04-15T09:13:25.048Z,33
2023-04-15T09:14:41.292Z,39
2023-04-15T09:15:57.527Z,39
2023-04-15T09:17:13.774Z,39
2023-04-15T09:18:30.014Z,39
2023-04-15T09:19:46.254Z,39
2023-04-15T09:21:02.494Z,33
2023-04-15T09:22:17.765Z,28
2023-04-15T09:23:33.994Z,33
2023-04-15T09:24:50.235Z,39
2023-04-15T09:26:06.466Z,39
2023-04-15T09:27:22.710Z,33
2023-04-15T09:28:38.942Z,28
2023-04-15T09:29:55.194Z,28
2023-04-15T09:31:11.425Z,28
2023-04-15T09:32:27.676Z,28
2023-04-15T09:33:43.930Z,22
2023-04-15T09:35:00.146Z,22
2023-04-15T09:36:16.382Z,22
2023-04-15T09:37:31.652Z,22
2023-04-15T09:38:46.912Z,22
2023-04-15T09:40:02.162Z,22
2023-04-15T09:41:17.423Z,33
2023-04-15T09:42:33.672Z,39
2023-04-15T09:43:49.898Z,45
2023-04-15T09:45:06.151Z,45
2023-04-15T09:46:22.387Z,39
2023-04-15T09:47:38.636Z,39
2023-04-15T09:48:54.865Z,39
2023-04-15T09:50:11.110Z,39
2023-04-15T09:51:27.350Z,45
2023-04-15T09:52:43.589Z,45
2023-04-15T09:53:59.837Z,45
2023-04-15T09:55:16.062Z,45
2023-04-15T09:56:32.298Z,50
2023-04-15T09:57:47.557Z,45
2023-04-15T09:59:03.793Z,50
2023-04-15T10:00:20.041Z,56
2023-04-15T10:02:52.521Z,50
2023-04-15T10:04:08.769Z,45
2023-04-15T10:05:25.007Z,50
2023-04-15T10:06:41.249Z,50
2023-04-15T10:07:57.636Z,50
2023-04-15T10:09:12.884Z,56
2023-04-15T10:10:28.139Z,56
2023-04-15T10:11:43.398Z,56
2023-04-15T10:12:59.651Z,50
2023-04-15T10:14:15.881Z,45
2023-04-15T10:15:32.133Z,45
2023-04-15T10:16:48.356Z,45
2023-04-15T10:18:04.591Z,50
2023-04-15T10:19:20.858Z,50
2023-04-15T10:20:37.068Z,56
2023-04-15T10:21:53.322Z,61
2023-04-15T10:23:09.552Z,67
2023-04-15T10:24:25.803Z,73
2023-04-15T10:25:42.032Z,73
2023-04-15T10:26:58.277Z,73
2023-04-15T10:28:13.535Z,73
2023-04-15T10:29:29.763Z,73
2023-04-15T10:30:46.017Z,73
2023-04-15T10:32:02.246Z,67
2023-04-15T10:33:18.503Z,67
2023-04-15T10:34:34.749Z,61
2023-04-15T10:35:50.991Z,61
2023-04-15T10:37:06.236Z,56
2023-04-15T10:38:21.491Z,56
2023-04-15T10:39:36.752Z,56
2023-04-15T10:40:51.999Z,56
2023-04-15T10:42:08.246Z,50
2023-04-15T10:43:24.490Z,50
2023-04-15T10:44:40.728Z,56
2023-04-15T10:45:56.974Z,61
2023-04-15T10:47:13.198Z,61
2023-04-15T10:48:29.443Z,56
2023-04-15T10:49:45.692Z,56
2023-04-15T10:51:01.932Z,50
2023-04-15T10:52:18.162Z,45
2023-04-15T10:53:34.422Z,39
2023-04-15T10:54:50.640Z,39
2023-04-15T10:56:06.890Z,39
2023-04-15T10:57:22.148Z,39
2023-04-15T10:58:38.394Z,45
2023-04-15T10:59:54.622Z,45
2023-04-15T11:01:10.857Z,50
2023-04-15T11:02:27.110Z,45
2023-04-15T11:03:43.340Z,45
2023-04-15T11:04:59.586Z,45
2023-04-15T11:06:14.859Z,56
2023-04-15T11:07:30.090Z,56
2023-04-15T11:08:45.368Z,56
2023-04-15T11:10:00.621Z,45
2023-04-15T11:11:16.871Z,45
2023-04-15T11:12:33.100Z,45
2023-04-15T11:13:49.341Z,50
2023-04-15T11:15:05.584Z,50
2023-04-15T11:16:21.823Z,56
2023-04-15T11:17:38.060Z,61
2023-04-15T11:18:54.303Z,67
2023-04-15T11:20:10.528Z,67
2023-04-15T11:21:26.791Z,50
2023-04-15T11:22:43.012Z,45
2023-04-15T11:23:59.265Z,45
2023-04-15T11:25:15.488Z,39
2023-04-15T11:26:30.755Z,33
2023-04-15T11:27:47.003Z,33
2023-04-15T11:29:03.225Z,33
2023-04-15T11:30:19.486Z,39
2023-04-15T11:31:35.710Z,45
2023-04-15T11:32:51.958Z,61
2023-04-15T11:34:08.186Z,73
2023-04-15T11:35:23.468Z,73
2023-04-15T11:36:38.702Z,61
2023-04-15T11:37:53.964Z,56
2023-04-15T11:39:09.223Z,61
2023-04-15T11:40:25.461Z,61
2023-04-15T11:41:41.700Z,56
2023-04-15T11:42:57.963Z,45
2023-04-15T11:44:14.180Z,50
2023-04-15T11:45:30.431Z,61
2023-04-15T11:46:46.666Z,67
2023-04-15T11:48:02.916Z,67
2023-04-15T11:49:19.154Z,67
2023-04-15T11:50:35.403Z,67
2023-04-15T11:51:51.626Z,61
2023-04-15T11:53:07.862Z,56
2023-04-15T11:54:24.112Z,56
2023-04-15T11:55:39.374Z,45
2023-04-15T11:56:55.604Z,45
2023-04-15T11:58:11.854Z,45
2023-04-15T11:59:28.075Z,56
2023-04-15T12:00:44.322Z,56
2023-04-15T12:02:00.571Z,50
2023-04-15T12:03:16.797Z,50
2023-04-15T12:04:32.075Z,45
2023-04-15T12:05:47.320Z,45
2023-04-15T12:07:03.568Z,50
2023-04-15T12:08:19.793Z,56
2023-04-15T12:09:36.035Z,56
2023-04-15T12:12:08.527Z,50
2023-04-15T12:13:24.758Z,56
2023-04-15T12:14:41.014Z,78
2023-04-15T12:15:57.235Z,78
2023-04-15T12:17:13.496Z,84
2023-04-15T12:18:29.723Z,90
2023-04-15T12:19:45.957Z,84
2023-04-15T12:21:02.193Z,67
2023-04-15T12:22:17.468Z,73
2023-04-15T12:23:33.705Z,90
2023-04-15T12:24:49.957Z,106
2023-04-15T12:26:06.188Z,106
2023-04-15T12:27:22.415Z,95
2023-04-15T12:28:38.653Z,84
2023-04-15T12:29:54.910Z,78
2023-04-15T12:31:11.149Z,78
2023-04-15T12:32:26.412Z,78
2023-04-15T12:33:41.657Z,73
2023-04-15T12:34:56.910Z,78
2023-04-15T12:36:12.169Z,90
2023-04-15T12:37:28.419Z,95
2023-04-15T12:38:44.646Z,101
2023-04-15T12:40:00.911Z,101
2023-04-15T12:41:17.141Z,106
2023-04-15T12:42:33.381Z,101
2023-04-15T12:43:49.622Z,90
2023-04-15T12:45:05.859Z,84
2023-04-15T12:46:22.098Z,78
2023-04-15T12:47:38.331Z,101
2023-04-15T12:48:54.579Z,112
2023-04-15T12:50:10.804Z,101
2023-04-15T12:51:27.000Z,106
2023-04-15T12:52:42.304Z,101
2023-04-15T12:53:58.548Z,106
2023-04-15T12:55:14.786Z,101
2023-04-15T12:56:31.032Z,90
2023-04-15T12:57:47.275Z,95
2023-04-15T12:59:03.510Z,84
2023-04-15T13:00:19.741Z,90
2023-04-15T13:01:35.022Z,101
2023-04-15T13:02:50.290Z,112
2023-04-15T13:04:06.502Z,101
2023-04-15T13:05:21.784Z,95
2023-04-15T13:06:38.008Z,95
2023-04-15T13:07:53.274Z,78
2023-04-15T13:09:08.548Z,73
2023-04-15T13:10:23.789Z,78
2023-04-15T13:11:40.030Z,84
2023-04-15T13:12:56.260Z,90
2023-04-15T13:14:12.496Z,90
2023-04-15T13:15:28.746Z,90
2023-04-15T13:16:44.979Z,84
2023-04-15T13:18:01.220Z,78
2023-04-15T13:19:17.468Z,78
2023-04-15T13:20:33.712Z,78
2023-04-15T13:21:49.941Z,84
2023-04-15T13:23:06.191Z,84
2023-04-15T13:24:22.434Z,84
2023-04-15T13:25:38.670Z,95
2023-04-15T13:26:53.917Z,101
2023-04-15T13:28:10.148Z,101
2023-04-15T13:29:26.398Z,95
2023-04-15T13:30:42.657Z,90
2023-04-15T13:31:58.887Z,84
2023-04-15T13:33:15.109Z,73
2023-04-15T13:34:31.357Z,61
2023-04-15T13:35:46.627Z,56
2023-04-15T13:37:01.894Z,61
2023-04-15T13:38:17.140Z,61
2023-04-15T13:39:32.397Z,67
2023-04-15T13:40:48.650Z,73
2023-04-15T13:42:04.874Z,90
2023-04-15T13:43:21.134Z,106
2023-04-15T13:44:37.351Z,112
2023-04-15T13:45:53.601Z,112
2023-04-15T13:47:09.827Z,112
2023-04-15T13:48:26.071Z,123
2023-04-15T13:49:42.325Z,129
2023-04-15T13:50:58.548Z,140
2023-04-15T13:52:14.786Z,135
2023-04-15T13:53:31.029Z,129
2023-04-15T13:54:47.265Z,118
2023-04-15T13:56:02.522Z,106
2023-04-15T13:57:18.779Z,90
2023-04-15T13:58:35.014Z,84
2023-04-15T13:59:51.246Z,67
2023-04-15T14:01:07.497Z,56
2023-04-15T14:02:23.722Z,50
2023-04-15T14:03:39.979Z,45
2023-04-15T14:04:55.232Z,45
2023-04-15T14:06:10.488Z,50
2023-04-15T14:07:26.736Z,50
2023-04-15T14:08:42.975Z,45
2023-04-15T14:09:59.198Z,39
2023-04-15T14:11:15.444Z,33
2023-04-15T14:12:31.692Z,33
2023-04-15T14:13:47.936Z,39
2023-04-15T14:15:04.167Z,39
2023-04-15T14:16:20.419Z,39
2023-04-15T14:17:36.640Z,45
2023-04-15T14:18:52.908Z,45
2023-04-15T14:20:09.128Z,45
2023-04-15T14:21:25.366Z,50
2023-04-15T14:22:40.617Z,50
2023-04-15T14:23:56.856Z,45
2023-04-15T14:25:13.116Z,45
2023-04-15T14:26:29.353Z,50
2023-04-15T14:27:45.587Z,56
2023-04-15T14:29:01.811Z,61
2023-04-15T14:30:18.073Z,78
2023-04-15T14:31:33.318Z,101
2023-04-15T14:32:48.586Z,112
2023-04-15T14:34:03.849Z,123
2023-04-15T14:35:19.093Z,140
2023-04-15T14:36:34.350Z,135
2023-04-15T14:37:49.622Z,118
2023-04-15T14:39:05.855Z,106
2023-04-15T14:40:22.082Z,101
2023-04-15T14:41:38.323Z,90
2023-04-15T14:42:54.563Z,84
2023-04-15T14:44:10.821Z,84
2023-04-15T14:45:27.058Z,90
2023-04-15T14:46:43.000Z,101
2023-04-15T14:47:59.542Z,106
2023-04-15T14:49:15.779Z,112
2023-04-15T14:50:32.006Z,123
2023-04-15T14:51:48.248Z,129
2023-04-15T14:53:04.488Z,135
2023-04-15T14:54:19.000Z,135
2023-04-15T14:55:36.007Z,135
2023-04-15T14:56:52.236Z,129
2023-04-15T14:58:08.464Z,123
2023-04-15T14:59:24.699Z,106
2023-04-15T15:00:40.946Z,95
2023-04-15T15:01:57.184Z,78
2023-04-15T15:03:12.457Z,67
2023-04-15T15:04:27.696Z,67
2023-04-15T15:05:42.966Z,73
2023-04-15T15:06:58.211Z,73
2023-04-15T15:08:14.471Z,73
2023-04-15T15:09:30.695Z,67
2023-04-15T15:10:46.953Z,67
2023-04-15T15:12:03.174Z,61
2023-04-15T15:13:19.411Z,61
2023-04-15T15:14:35.664Z,67
2023-04-15T15:15:51.922Z,67
2023-04-15T15:17:08.147Z,61
2023-04-15T15:18:24.377Z,50
2023-04-15T15:19:40.627Z,45
2023-04-15T15:20:56.856Z,45
2023-04-15T15:22:13.111Z,39
2023-04-15T15:23:28.354Z,39
2023-04-15T15:24:44.589Z,39
2023-04-15T15:26:00.856Z,45
2023-04-15T15:27:17.083Z,50
2023-04-15T15:28:33.311Z,50
2023-04-15T15:29:49.546Z,56
2023-04-15T15:31:05.785Z,61
2023-04-15T15:32:21.058Z,61
2023-04-15T15:33:36.321Z,61
2023-04-15T15:34:51.561Z,61
2023-04-15T15:36:06.829Z,61
2023-04-15T15:37:23.069Z,61
2023-04-15T15:38:39.314Z,61
2023-04-15T15:39:55.554Z,56
2023-04-15T15:41:11.794Z,50
2023-04-15T15:42:28.025Z,45
2023-04-15T15:43:44.263Z,45
2023-04-15T15:45:00.528Z,39
2023-04-15T15:46:16.744Z,39
2023-04-15T15:47:32.982Z,39
2023-04-15T15:48:49.219Z,33
2023-04-15T15:50:05.000Z,33
2023-04-15T15:51:21.705Z,33
2023-04-15T15:52:36.963Z,33
2023-04-15T15:53:53.195Z,33
2023-04-15T15:55:09.440Z,33
2023-04-15T15:56:25.678Z,33
2023-04-15T15:57:41.917Z,33
2023-04-15T15:58:58.176Z,33
2023-04-15T16:00:14.403Z,33
2023-04-15T16:01:29.663Z,33
2023-04-15T16:02:44.925Z,39
2023-04-15T16:04:00.192Z,39
2023-04-15T16:05:15.437Z,39
2023-04-15T16:06:31.669Z,39
2023-04-15T16:07:47.916Z,45
2023-04-15T16:09:04.145Z,50
2023-04-15T16:10:20.403Z,50
2023-04-15T16:11:36.626Z,56
2023-04-15T16:12:52.887Z,56
2023-04-15T16:14:09.124Z,56
2023-04-15T16:15:25.350Z,61
2023-04-15T16:16:41.603Z,61
2023-04-15T16:17:57.836Z,67
2023-04-15T16:19:14.100Z,67
2023-04-15T16:20:30.311Z,67
2023-04-15T16:21:45.570Z,67
2023-04-15T16:23:01.831Z,73
2023-04-15T16:24:18.058Z,73
2023-04-15T16:25:34.300Z,73
2023-04-15T16:26:50.548Z,67
2023-04-15T16:28:06.777Z,61
2023-04-15T16:29:23.007Z,56
2023-04-15T16:30:38.271Z,56
2023-04-15T16:31:53.524Z,56
2023-04-15T16:33:08.783Z,56
2023-04-15T16:34:24.054Z,56
2023-04-15T16:35:40.297Z,50
2023-04-15T16:36:56.532Z,50
2023-04-15T16:38:12.779Z,50
2023-04-15T16:39:28.999Z,50
2023-04-15T16:40:45.256Z,50
2023-04-15T16:42:01.495Z,45
2023-04-15T16:43:17.730Z,45
2023-04-15T16:44:33.972Z,45
2023-04-15T16:45:50.204Z,45
2023-04-15T16:47:06.435Z,39
2023-04-15T16:48:22.696Z,39
2023-04-15T16:49:38.915Z,39
2023-04-15T16:50:54.184Z,33
2023-04-15T16:52:10.419Z,33
2023-04-15T16:53:26.673Z,33
2023-04-15T16:54:42.908Z,33
2023-04-15T16:55:59.133Z,33
2023-04-15T16:57:15.384Z,33
2023-04-15T16:58:31.620Z,33
2023-04-15T16:59:46.887Z,28
2023-04-15T17:01:02.124Z,28
2023-04-15T17:02:18.392Z,22
2023-04-15T17:03:34.783Z,22
2023-04-15T17:04:50.009Z,22
2023-04-15T17:06:06.245Z,22
2023-04-15T17:07:22.511Z,22
2023-04-15T17:08:38.738Z,22
2023-04-15T17:09:54.988Z,22
2023-04-15T17:11:11.208Z,22
2023-04-15T17:12:27.459Z,22
2023-04-15T17:13:43.712Z,22
2023-04-15T17:14:59.933Z,22
2023-04-15T17:16:16.192Z,16
2023-04-15T17:17:32.426Z,16
2023-04-15T17:18:48.667Z,16
2023-04-15T17:20:04.910Z,16
2023-04-15T17:21:20.144Z,16
2023-04-15T17:22:36.407Z,16
2023-04-15T17:23:52.633Z,16
2023-04-15T17:25:08.882Z,16
2023-04-15T17:26:25.137Z,16
2023-04-15T17:27:41.367Z,11
2023-04-15T17:28:57.588Z,11
2023-04-15T17:30:12.851Z,11
2023-04-15T17:31:28.103Z,11
2023-04-15T17:32:43.359Z,11
2023-04-15T17:33:58.623Z,11
2023-04-15T17:35:14.876Z,11
2023-04-15T17:36:31.095Z,5
2023-04-15T17:37:47.340Z,5
2023-04-15T17:39:03.575Z,5
2023-04-15T17:40:19.821Z,5
2023-04-15T17:41:36.085Z,5
2023-04-15T17:42:52.315Z,5
2023-04-15T17:44:08.536Z,5
2023-04-15T17:45:24.774Z,5
2023-04-15T17:46:41.031Z,5
2023-04-15T17:47:57.285Z,0
2023-04-15T17:49:13.520Z,0
2023-04-15T17:50:28.755Z,0
2023-04-15T17:51:44.012Z,0
2023-04-15T17:53:00.261Z,0
2023-04-15T17:54:16.513Z,0
2023-04-15T17:55:32.765Z,0
2023-04-15T17:56:49.009Z,0
2023-04-15T17:58:05.211Z,0
2023-04-15T17:59:20.477Z,0
2023-04-15T18:00:35.729Z,0
2023-04-15T18:01:50.993Z,0
2023-04-15T18:03:06.245Z,0
2023-04-15T18:04:22.516Z,0
2023-04-15T18:05:38.751Z,0
2023-04-15T18:06:54.979Z,0
2023-04-15T18:08:11.206Z,0
2023-04-15T18:09:27.487Z,0
2023-04-15T18:10:43.693Z,0
2023-04-15T18:11:59.939Z,0
2023-04-15T18:13:16.193Z,0
2023-04-15T18:14:32.417Z,0
2023-04-15T18:15:48.655Z,0
2023-04-15T18:17:04.910Z,0
2023-04-15T18:18:21.126Z,0
2023-04-15T18:19:36.381Z,0
2023-04-15T18:20:52.642Z,0